• Join FlightAware (Why Join?)
  • Login
  • US Flag 
Rudolph Flight #1: Arrived! 
01:01AM EST


 

Airport Tracker/Info


-or-


 

Live Flight TrackerFlight Track Log ✈ DAL6234 ✈ 12-Aug-2014 ✈ KMHT - KLGA

Flight Track Log - Related Links

Times and Time Zones

All times are in EDT time to prevent confusion due to time zone crossing. See the DAL6234 flight status page for this flight to view local times or setup timezone preferences in your user account.

Time Position Orientation Groundspeed Altitude Reporting Facility
EDT Latitude Longitude Course Direction KTS MPH feet Rate Location/Type
05:59AM 42.9500 -71.4167 22° Northeast 170 196 1,000  Level KA90
06:01AM 43.0119 -71.3817 22° Northeast 213 245 3,600 2,400 Climbing Boston Center
06:02AM 43.0611 -71.4153 333° Northwest 239 275 6,400 2,340 Climbing Boston Center
06:03AM 43.0617 -71.5147 270° West 274 315 8,400 2,400 Climbing Boston Center
06:04AM 43.0594 -71.6350 269° West 295 339 11,300 2,640 Climbing Boston Center
06:05AM 43.0556 -71.7467 267° West 296 341 13,800 2,340 Climbing Boston Center
06:06AM 43.0522 -71.8675 268° West 316 364 16,100 2,100 Climbing Boston Center
06:07AM 43.0481 -71.9889 267° West 318 366 18,100 1,860 Climbing Boston Center
06:08AM 43.0447 -72.1086 268° West 321 369 19,900 1,740 Climbing Boston Center
06:09AM 43.0400 -72.2364 267° West 333 383 21,700 1,020 Climbing Boston Center
06:10AM 43.0353 -72.3500 267° West 336 387 22,000 120 Climbing Boston Center
06:11AM 43.0311 -72.4825 268° West 345 397 22,000  Level Boston Center
06:12AM 43.0250 -72.6328 267° West 347 399 22,000  Level Boston Center
06:13AM 43.0200 -72.7636 267° West 347 399 22,000  Level Boston Center
06:14AM 43.0142 -72.8919 266° West 346 398 22,000  Level Boston Center
06:15AM 43.0094 -73.0211 267° West 342 394 22,000  Level Boston Center
06:16AM 43.0028 -73.1522 266° West 342 394 22,000 -60 Level Boston Center
06:17AM 42.9964 -73.2850 266° West 345 397 21,900 -600 Descending Boston Center
06:18AM 42.9319 -73.3658 223° Southwest 337 388 20,900 -1,020 Descending Boston Center
06:19AM 42.8411 -73.3758 185° South 328 377 19,900 -1,020 Descending Boston Center
06:20AM 42.7414 -73.3969 189° South 326 375 18,900 -960 Descending Boston Center
06:21AM 42.6483 -73.4167 189° South 318 366 18,000 -480 Descending Boston Center
06:22AM 42.5639 -73.4353 189° South 311 358 18,000 -60 Level Boston Center
06:23AM 42.4800 -73.4531 189° South 307 353 17,900 -300 Descending Boston Center
06:24AM 42.3944 -73.4714 189° South 309 356 17,400 -600 Descending Boston Center
06:25AM 42.3108 -73.4900 189° South 308 354 16,800 -600 Descending Boston Center
06:26AM 42.2269 -73.5075 189° South 307 353 16,200 -600 Descending Boston Center
06:27AM 42.1417 -73.5247 189° South 307 353 15,600 -600 Descending Boston Center
06:28AM 42.0486 -73.5439 189° South 307 353 15,000 -660 Descending Boston Center
06:29AM 41.9675 -73.5706 194° South 304 350 14,300 -720 Descending Boston Center
06:30AM 41.8864 -73.6011 196° South 303 349 13,600 -720 Descending Boston Center
06:31AM 41.8050 -73.6311 195° South 303 349 12,900 -720 Descending Boston Center
06:32AM 41.7264 -73.6597 195° South 297 342 12,200 -780 Descending Boston Center
06:33AM 41.6436 -73.6900 195° South 288 331 11,400 -780 Descending Boston Center
06:34AM 41.5694 -73.7175 196° South 281 323 10,700 -780 Descending Boston Center
06:35AM 41.4953 -73.7442 195° South 278 320 9,900 -780 Descending Boston Center
06:36AM 41.4228 -73.7708 195° South 273 314 9,200 -720 Descending Boston Center
06:37AM 41.3531 -73.7967 196° South 263 303 8,500 -720 Descending Boston Center
06:38AM 41.2833 -73.7500 153° Southeast 260 299 7,700 -720 Descending New York TRACON
06:39AM 41.2167 -73.6833 143° Southeast 270 311 7,000 -780 Descending New York TRACON
06:40AM 41.1667 -73.6500 153° Southeast 263 303 6,400 -720 Descending New York TRACON
06:41AM 41.1167 -73.6000 143° Southeast 265 305 5,800 -660 Descending New York TRACON
06:42AM 41.0500 -73.6500 209° Southwest 269 310 5,200 -660 Descending New York TRACON
06:43AM 41.0000 -73.7000 217° Southwest 264 304 4,600 -900 Descending New York TRACON
06:44AM 40.9333 -73.7500 210° Southwest 253 291 3,400 -1,200 Descending New York TRACON
06:45AM 40.8833 -73.7833 207° Southwest 209 241 2,300 -1,020 Descending New York TRACON
06:46AM 40.8500 -73.8167 217° Southwest 133 153 1,400 -840 Descending New York TRACON
06:47AM 40.8167 -73.8500 217° Southwest 138 159 700 -720 Descending New York TRACON
06:49AM 40.7772 -73.8726 180° South  Level Estimated
06:56AM 40.7772 -73.8726 180° South  Level Estimated
06:57AM 40.7772 -73.8726 180° South  Level Estimated